Main page
METAR-TAF:

METAR-TAF

Airports :

Svalbard Airport. Longyear

Longyearbyen, Norway

latitude: 78-15N, longitude: 015-28E, elevation: 2 m

Current weather observation

The report was made 52 minutes ago, at 20:50 UTC
Wind 15 kt from the North/Northeast
Temperature -14°C
Humidity 66%
Pressure 984 hPa
Visibility 10 km or more
Few clouds at a height of 2500 ft

METAR: ENSB 172050Z 02015KT 9999 FEW025 M14/M19 Q0984 RMK WIND 1400FT 02013KT

Time: 22:42 (21:42 UTC)

Forecast

Forecast valid from 17 at 18 UTC to 18 at 18 UTC
Wind 8 kt from the North
Visibility 10 km or more
Few clouds at a height of 2000 ft
Temporary
from 17 at 21 UTC to 18 at 12 UTC
Wind 18 kt from the Northeast

TAF: ENSB 1718/1818 01008KT 9999 FEW020 TEMPO 1721/1812 04018KT

Weather observations and forecasts of more than 4000 airports (METAR and TAF reports).

The available stations are represented by yellow and red dots on the map.

Hover mouse over dot to see the name of the station.

Then click to see weather observations and forecasts.

To change the map : click on the green buttons with a black cross to zoom in, on the green button with a dash to zoom out, or on the green arrows for adjacent maps.


METAR-TAF: